createdAt,value
2023-04-12T00:02:35.863Z,0.77
2023-04-12T00:05:39.249Z,0.70
2023-04-12T00:08:42.845Z,0.70
2023-04-12T00:11:45.971Z,0.83
2023-04-12T00:14:50.520Z,1.10
2023-04-12T00:17:53.593Z,1.17
2023-04-12T00:20:56.825Z,1.13
2023-04-12T00:23:59.962Z,1.23
2023-04-12T00:27:03.115Z,1.07
2023-04-12T00:30:09.432Z,1.00
2023-04-12T00:33:12.565Z,0.73
2023-04-12T00:36:15.919Z,1.00
2023-04-12T00:39:19.034Z,0.70
2023-04-12T00:42:22.174Z,0.90
2023-04-12T00:45:27.430Z,0.90
2023-04-12T00:48:32.127Z,1.03
2023-04-12T00:51:35.281Z,0.80
2023-04-12T00:54:39.772Z,0.80
2023-04-12T00:57:42.924Z,0.87
2023-04-12T01:00:50.496Z,1.00
2023-04-12T01:04:01.385Z,0.90
2023-04-12T01:07:15.802Z,0.77
2023-04-12T01:10:31.870Z,0.70
2023-04-12T01:13:41.156Z,0.90
2023-04-12T01:16:51.306Z,0.80
2023-04-12T01:19:59.321Z,0.80
2023-04-12T01:23:19.004Z,0.87
2023-04-12T01:26:34.526Z,0.70
2023-04-12T01:29:39.902Z,0.90
2023-04-12T01:32:47.701Z,1.00
2023-04-12T01:35:52.570Z,0.97
2023-04-12T01:38:57.159Z,0.70
2023-04-12T01:42:00.967Z,1.20
2023-04-12T01:45:06.660Z,1.17
2023-04-12T01:48:12.711Z,1.17
2023-04-12T01:51:20.415Z,1.07
2023-04-12T01:54:28.492Z,0.87
2023-04-12T01:57:32.504Z,1.10
2023-04-12T02:00:37.917Z,1.10
2023-04-12T02:03:43.452Z,1.00
2023-04-12T02:06:48.516Z,0.90
2023-04-12T02:09:51.632Z,1.47
2023-04-12T02:12:55.510Z,0.93
2023-04-12T02:15:59.995Z,1.10
2023-04-12T02:19:04.052Z,0.80
2023-04-12T02:22:08.384Z,1.13
2023-04-12T02:25:11.698Z,0.90
2023-04-12T02:28:15.130Z,0.90
2023-04-12T02:31:19.715Z,1.20
2023-04-12T02:34:22.840Z,1.00
2023-04-12T02:37:27.532Z,0.77
2023-04-12T02:40:30.724Z,1.00
2023-04-12T02:43:34.279Z,1.07
2023-04-12T02:46:38.774Z,1.07
2023-04-12T02:49:41.888Z,1.23
2023-04-12T02:52:46.941Z,0.80
2023-04-12T02:55:50.129Z,0.90
2023-04-12T02:58:53.249Z,1.10
2023-04-12T03:01:57.921Z,1.00
2023-04-12T03:05:03.538Z,1.23
2023-04-12T03:08:07.070Z,1.37
2023-04-12T03:11:10.128Z,0.90
2023-04-12T03:14:13.186Z,1.30
2023-04-12T03:17:17.610Z,1.60
2023-04-12T03:20:20.701Z,1.90
2023-04-12T03:23:23.886Z,2.23
2023-04-12T03:26:27.635Z,2.40
2023-04-12T03:29:31.027Z,2.80
2023-04-12T03:32:35.669Z,2.10
2023-04-12T03:35:38.848Z,2.70
2023-04-12T03:38:43.409Z,2.10
2023-04-12T03:41:46.685Z,1.97
2023-04-12T03:44:49.799Z,2.03
2023-04-12T03:47:54.372Z,2.60
2023-04-12T03:50:59.954Z,3.00
2023-04-12T03:54:04.402Z,2.30
2023-04-12T03:57:07.690Z,2.33
2023-04-12T04:00:12.561Z,2.60
2023-04-12T04:03:17.623Z,2.43
2023-04-12T04:06:20.934Z,3.10
2023-04-12T04:09:24.113Z,3.13
2023-04-12T04:12:28.172Z,3.50
2023-04-12T04:15:31.312Z,3.50
2023-04-12T04:18:36.181Z,4.90
2023-04-12T04:21:40.604Z,4.30
2023-04-12T04:24:43.842Z,4.63
2023-04-12T04:27:47.108Z,4.07
2023-04-12T04:30:51.678Z,4.70
2023-04-12T04:33:56.318Z,4.83
2023-04-12T04:36:59.715Z,4.40
2023-04-12T04:40:07.842Z,4.90
2023-04-12T04:43:13.951Z,4.53
2023-04-12T04:46:17.456Z,3.53
2023-04-12T04:49:21.955Z,4.10
2023-04-12T04:52:25.262Z,3.50
2023-04-12T04:55:29.701Z,13.40
2023-04-12T04:58:32.847Z,24.00
2023-04-12T05:01:36.778Z,7.50
2023-04-12T05:04:41.534Z,6.50
2023-04-12T05:07:45.007Z,5.73
2023-04-12T05:10:52.079Z,4.00
2023-04-12T05:13:55.187Z,4.00
2023-04-12T05:16:58.408Z,4.50
2023-04-12T05:20:06.547Z,4.67
2023-04-12T05:23:09.690Z,4.57
2023-04-12T05:26:13.055Z,3.80
2023-04-12T05:29:16.213Z,6.13
2023-04-12T05:32:19.296Z,9.63
2023-04-12T05:35:23.817Z,8.97
2023-04-12T05:38:27.266Z,5.70
2023-04-12T05:41:31.355Z,5.10
2023-04-12T05:44:36.674Z,5.70
2023-04-12T05:47:39.818Z,5.97
2023-04-12T05:50:51.926Z,5.30
2023-04-12T05:53:55.012Z,3.53
2023-04-12T05:56:58.113Z,3.90
2023-04-12T06:00:01.298Z,3.27
2023-04-12T06:03:04.829Z,2.50
2023-04-12T06:06:10.252Z,2.73
2023-04-12T06:09:14.747Z,2.13
2023-04-12T06:12:18.038Z,2.77
2023-04-12T06:15:21.168Z,5.30
2023-04-12T06:18:24.218Z,33.07
2023-04-12T06:21:28.996Z,6.57
2023-04-12T06:24:32.151Z,2.00
2023-04-12T06:27:35.220Z,1.63
2023-04-12T06:30:38.831Z,1.93
2023-04-12T06:33:42.027Z,1.63
2023-04-12T06:36:47.703Z,1.63
2023-04-12T06:39:51.224Z,1.93
2023-04-12T06:42:54.323Z,1.67
2023-04-12T06:45:58.366Z,2.70
2023-04-12T06:49:01.580Z,1.73
2023-04-12T06:52:06.361Z,1.50
2023-04-12T06:55:10.480Z,1.50
2023-04-12T06:58:13.625Z,1.47
2023-04-12T07:01:17.852Z,1.60
2023-04-12T07:04:21.273Z,1.90
2023-04-12T07:07:25.866Z,1.30
2023-04-12T07:10:28.953Z,1.53
2023-04-12T07:13:32.117Z,1.70
2023-04-12T07:16:35.212Z,2.10
2023-04-12T07:19:38.309Z,2.03
2023-04-12T07:22:42.742Z,1.33
2023-04-12T07:25:46.095Z,1.87
2023-04-12T07:28:49.230Z,1.90
2023-04-12T07:31:52.359Z,1.83
2023-04-12T07:34:55.513Z,1.87
2023-04-12T07:38:00.155Z,2.30
2023-04-12T07:41:03.328Z,2.80
2023-04-12T07:44:06.785Z,1.70
2023-04-12T07:47:09.972Z,1.97
2023-04-12T07:50:13.503Z,1.40
2023-04-12T07:53:22.205Z,1.40
2023-04-12T07:56:25.724Z,1.48
2023-04-12T07:59:29.041Z,1.38
2023-04-12T08:02:32.283Z,1.77
2023-04-12T08:05:36.035Z,2.13
2023-04-12T08:08:40.670Z,1.40
2023-04-12T08:11:43.812Z,2.30
2023-04-12T08:14:46.881Z,2.00
2023-04-12T08:17:50.046Z,2.13
2023-04-12T08:20:53.193Z,2.13
2023-04-12T08:23:58.043Z,2.50
2023-04-12T08:27:01.706Z,2.17
2023-04-12T08:30:05.214Z,2.43
2023-04-12T08:33:08.313Z,2.43
2023-04-12T08:36:12.026Z,2.43
2023-04-12T08:39:16.494Z,2.60
2023-04-12T08:42:20.322Z,2.20
2023-04-12T08:45:26.782Z,1.83
2023-04-12T08:48:29.937Z,3.00
2023-04-12T08:51:36.293Z,2.40
2023-04-12T08:54:40.788Z,2.77
2023-04-12T08:57:44.520Z,2.17
2023-04-12T09:00:48.254Z,2.60
2023-04-12T09:03:51.457Z,1.80
2023-04-12T09:06:54.709Z,2.40
2023-04-12T09:09:59.936Z,2.20
2023-04-12T09:13:03.974Z,2.13
2023-04-12T09:16:07.569Z,3.03
2023-04-12T09:19:10.853Z,1.90
2023-04-12T09:22:13.946Z,2.00
2023-04-12T09:25:18.427Z,1.83
2023-04-12T09:28:26.913Z,1.73
2023-04-12T09:31:30.094Z,1.87
2023-04-12T09:34:35.038Z,2.17
2023-04-12T09:37:39.186Z,2.13
2023-04-12T09:40:43.843Z,1.80
2023-04-12T09:43:47.137Z,2.73
2023-04-12T09:46:53.164Z,2.37
2023-04-12T09:49:56.433Z,1.97
2023-04-12T09:53:00.385Z,1.33
2023-04-12T09:56:05.919Z,2.03
2023-04-12T09:59:09.276Z,1.60
2023-04-12T10:02:16.883Z,1.97
2023-04-12T10:05:23.063Z,1.77
2023-04-12T10:08:27.462Z,1.70
2023-04-12T10:11:34.039Z,2.60
2023-04-12T10:14:37.362Z,1.77
2023-04-12T10:17:45.264Z,1.90
2023-04-12T10:20:48.702Z,1.47
2023-04-12T10:23:52.175Z,1.80
2023-04-12T10:27:00.237Z,1.90
2023-04-12T10:30:22.280Z,2.20
2023-04-12T10:33:27.695Z,1.87
2023-04-12T10:36:52.630Z,1.60
2023-04-12T10:39:56.290Z,1.83
2023-04-12T10:43:28.876Z,2.33
2023-04-12T10:46:53.792Z,1.80
2023-04-12T10:50:22.103Z,1.70
2023-04-12T10:53:28.626Z,1.97
2023-04-12T10:56:39.660Z,1.70
2023-04-12T10:59:59.208Z,1.90
2023-04-12T11:03:12.679Z,1.97
2023-04-12T11:06:27.019Z,2.23
2023-04-12T11:09:38.381Z,1.70
2023-04-12T11:12:42.802Z,1.90
2023-04-12T11:15:47.309Z,1.67
2023-04-12T11:18:50.559Z,2.13
2023-04-12T11:21:54.702Z,2.30
2023-04-12T11:24:59.221Z,2.13
2023-04-12T11:28:03.124Z,2.20
2023-04-12T11:31:08.768Z,2.20
2023-04-12T11:34:13.946Z,2.27
2023-04-12T11:37:21.711Z,2.90
2023-04-12T11:40:24.915Z,2.03
2023-04-12T11:43:28.079Z,6.80
2023-04-12T11:46:36.564Z,3.10
2023-04-12T11:49:45.441Z,4.43
2023-04-12T11:52:48.554Z,2.60
2023-04-12T11:55:51.984Z,2.90
2023-04-12T11:58:55.110Z,2.23
2023-04-12T12:02:00.897Z,2.33
2023-04-12T12:05:04.935Z,2.50
2023-04-12T12:08:09.416Z,2.37
2023-04-12T12:11:13.242Z,2.93
2023-04-12T12:14:20.370Z,2.40
2023-04-12T12:17:24.780Z,2.50
2023-04-12T12:20:28.010Z,2.67
2023-04-12T12:23:32.196Z,2.97
2023-04-12T12:26:37.084Z,2.07
2023-04-12T12:29:40.295Z,2.50
2023-04-12T12:32:45.742Z,2.37
2023-04-12T12:35:48.893Z,2.70
2023-04-12T12:38:54.588Z,2.33
2023-04-12T12:41:58.097Z,2.50
2023-04-12T12:45:01.226Z,2.90
2023-04-12T12:48:06.344Z,2.80
2023-04-12T12:51:10.195Z,2.97
2023-04-12T12:54:13.300Z,2.57
2023-04-12T12:57:16.401Z,2.30
2023-04-12T13:00:21.442Z,2.37
2023-04-12T13:03:26.162Z,2.50
2023-04-12T13:06:29.800Z,3.40
2023-04-12T13:09:33.607Z,3.07
2023-04-12T13:12:36.829Z,2.97
2023-04-12T13:15:39.984Z,2.70
2023-04-12T13:18:44.539Z,2.33
2023-04-12T13:21:47.901Z,2.73
2023-04-12T13:24:51.135Z,2.47
2023-04-12T13:27:54.500Z,2.17
2023-04-12T13:30:57.543Z,2.50
2023-04-12T13:34:02.148Z,2.63
2023-04-12T13:37:05.205Z,2.90
2023-04-12T13:40:09.238Z,2.87
2023-04-12T13:43:12.371Z,4.80
2023-04-12T13:46:15.636Z,5.30
2023-04-12T13:49:20.112Z,2.80
2023-04-12T13:52:23.447Z,2.50
2023-04-12T13:55:26.530Z,2.70
2023-04-12T13:58:29.687Z,2.20
2023-04-12T14:01:32.932Z,2.90
2023-04-12T14:04:37.614Z,2.60
2023-04-12T14:07:40.956Z,2.40
2023-04-12T14:10:44.365Z,2.87
2023-04-12T14:13:47.417Z,3.10
2023-04-12T14:16:51.859Z,2.30
2023-04-12T14:19:56.324Z,2.70
2023-04-12T14:22:59.402Z,2.73
2023-04-12T14:26:02.712Z,2.30
2023-04-12T14:29:06.138Z,2.50
2023-04-12T14:32:09.192Z,3.03
2023-04-12T14:35:13.659Z,2.40
2023-04-12T14:38:16.837Z,2.40
2023-04-12T14:41:19.960Z,2.80
2023-04-12T14:44:25.975Z,3.10
2023-04-12T14:47:29.565Z,2.60
2023-04-12T14:50:34.190Z,2.60
2023-04-12T14:53:37.379Z,2.87
2023-04-12T14:56:48.039Z,3.00
2023-04-12T14:59:52.806Z,2.97
2023-04-12T15:02:56.156Z,2.40
2023-04-12T15:06:00.777Z,2.43
2023-04-12T15:09:06.669Z,3.37
2023-04-12T15:12:09.962Z,2.33
2023-04-12T15:15:13.448Z,2.70
2023-04-12T15:18:16.657Z,3.00
2023-04-12T15:21:21.357Z,2.70
2023-04-12T15:24:25.150Z,3.33
2023-04-12T15:27:28.324Z,2.63
2023-04-12T15:30:31.904Z,2.53
2023-04-12T15:33:35.370Z,2.60
2023-04-12T15:36:43.111Z,3.27
2023-04-12T15:39:46.416Z,2.93
2023-04-12T15:42:49.575Z,2.70
2023-04-12T15:45:54.639Z,2.07
2023-04-12T15:48:58.904Z,2.50
2023-04-12T15:52:04.847Z,2.50
2023-04-12T15:55:11.693Z,3.17
2023-04-12T15:58:14.974Z,3.00
2023-04-12T16:01:18.327Z,2.90
2023-04-12T16:04:21.733Z,2.60
2023-04-12T16:07:26.338Z,2.33
2023-04-12T16:10:30.536Z,2.37
2023-04-12T16:13:34.014Z,2.80
2023-04-12T16:16:40.382Z,3.03
2023-04-12T16:19:43.704Z,3.10
2023-04-12T16:22:49.424Z,3.00
2023-04-12T16:25:52.511Z,2.37
2023-04-12T16:28:56.934Z,2.60
2023-04-12T16:32:00.712Z,6.17
2023-04-12T16:35:04.690Z,3.50
2023-04-12T16:38:09.134Z,3.30
2023-04-12T16:41:12.619Z,2.80
2023-04-12T16:44:19.726Z,2.80
2023-04-12T16:47:23.305Z,2.43
2023-04-12T16:50:28.341Z,2.90
2023-04-12T16:53:36.499Z,3.30
2023-04-12T16:56:39.914Z,15.43
2023-04-12T16:59:45.351Z,8.00
2023-04-12T17:02:51.399Z,4.73
2023-04-12T17:05:55.476Z,4.13
2023-04-12T17:09:02.694Z,4.83
2023-04-12T17:12:07.468Z,4.20
2023-04-12T17:15:13.869Z,3.77
2023-04-12T17:18:17.946Z,6.40
2023-04-12T17:21:22.860Z,7.00
2023-04-12T17:24:29.684Z,5.33
2023-04-12T17:27:39.120Z,4.83
2023-04-12T17:30:44.401Z,5.70
2023-04-12T17:33:48.501Z,3.80
2023-04-12T17:36:55.686Z,3.50
2023-04-12T17:40:01.219Z,5.63
2023-04-12T17:43:04.583Z,6.63
2023-04-12T17:46:08.013Z,7.80
2023-04-12T17:49:12.062Z,7.90
2023-04-12T17:52:17.700Z,7.60
2023-04-12T17:55:24.632Z,6.27
2023-04-12T17:58:28.946Z,5.20
2023-04-12T18:01:34.214Z,6.37
2023-04-12T18:04:41.733Z,5.63
2023-04-12T18:07:48.196Z,5.43
2023-04-12T18:10:53.763Z,4.33
2023-04-12T18:13:57.802Z,4.30
2023-04-12T18:17:01.592Z,4.30
2023-04-12T18:20:10.058Z,4.97
2023-04-12T18:23:13.609Z,6.43
2023-04-12T18:26:20.065Z,5.80
2023-04-12T18:29:25.690Z,4.70
2023-04-12T18:32:29.394Z,5.07
2023-04-12T18:35:34.401Z,5.33
2023-04-12T18:38:40.119Z,4.30
2023-04-12T18:41:45.177Z,4.27
2023-04-12T18:44:49.352Z,4.80
2023-04-12T18:47:54.095Z,4.60
2023-04-12T18:51:01.979Z,4.57
2023-04-12T18:54:10.748Z,4.80
2023-04-12T18:57:18.402Z,4.93
2023-04-12T19:00:23.065Z,4.70
2023-04-12T19:03:28.450Z,5.00
2023-04-12T19:06:32.740Z,5.67
2023-04-12T19:09:36.962Z,5.20
2023-04-12T19:12:43.196Z,4.50
2023-04-12T19:15:47.697Z,4.90
2023-04-12T19:18:51.511Z,4.40
2023-04-12T19:21:55.973Z,4.50
2023-04-12T19:25:02.093Z,4.80
2023-04-12T19:28:08.159Z,5.20
2023-04-12T19:31:14.616Z,4.50
2023-04-12T19:34:19.013Z,5.37
2023-04-12T19:37:24.335Z,4.77
2023-04-12T19:40:29.877Z,5.20
2023-04-12T19:43:36.798Z,5.60
2023-04-12T19:46:41.336Z,5.23
2023-04-12T19:49:45.447Z,6.20
2023-04-12T19:52:50.253Z,5.47
2023-04-12T19:55:58.642Z,5.00
2023-04-12T19:59:07.056Z,5.03
2023-04-12T20:02:12.476Z,5.33
2023-04-12T20:05:17.930Z,5.27
2023-04-12T20:08:23.236Z,6.07
2023-04-12T20:11:28.036Z,5.03
2023-04-12T20:14:36.789Z,5.23
2023-04-12T20:17:43.480Z,6.03
2023-04-12T20:20:49.039Z,5.63
2023-04-12T20:23:53.042Z,5.03
2023-04-12T20:26:59.590Z,5.13
2023-04-12T20:30:05.639Z,4.50
2023-04-12T20:33:09.626Z,5.33
2023-04-12T20:36:13.770Z,5.97
2023-04-12T20:39:21.201Z,5.60
2023-04-12T20:42:24.855Z,5.50
2023-04-12T20:45:30.123Z,6.13
2023-04-12T20:48:37.452Z,5.87
2023-04-12T20:51:41.366Z,5.43
2023-04-12T20:54:46.151Z,5.90
2023-04-12T20:57:49.764Z,5.53
2023-04-12T21:00:55.296Z,11.10
2023-04-12T21:03:59.844Z,6.30
2023-04-12T21:07:03.366Z,6.37
2023-04-12T21:10:08.674Z,5.57
2023-04-12T21:13:12.585Z,5.77
2023-04-12T21:16:17.564Z,5.80
2023-04-12T21:19:20.709Z,6.20
2023-04-12T21:22:23.983Z,5.83
2023-04-12T21:25:27.186Z,7.23
2023-04-12T21:28:31.077Z,5.97
2023-04-12T21:31:37.493Z,7.13
2023-04-12T21:34:40.784Z,5.80
2023-04-12T21:37:43.866Z,5.50
2023-04-12T21:40:47.445Z,5.83
2023-04-12T21:43:50.551Z,5.40
2023-04-12T21:46:55.061Z,4.50
2023-04-12T21:49:58.499Z,5.00
2023-04-12T21:53:01.658Z,4.70
2023-04-12T21:56:05.213Z,6.70
2023-04-12T21:59:08.344Z,5.40
2023-04-12T22:02:13.651Z,5.20
2023-04-12T22:05:16.856Z,4.83
2023-04-12T22:08:20.701Z,5.20
2023-04-12T22:11:23.830Z,5.53
2023-04-12T22:14:28.786Z,6.20
2023-04-12T22:17:33.709Z,5.80
2023-04-12T22:20:36.857Z,7.07
2023-04-12T22:23:40.688Z,6.60
2023-04-12T22:26:43.978Z,5.83
2023-04-12T22:29:49.811Z,6.50
2023-04-12T22:32:58.054Z,28.33
2023-04-12T22:36:02.268Z,20.20
2023-04-12T22:39:05.939Z,12.90
2023-04-12T22:42:09.027Z,25.30
2023-04-12T22:45:13.259Z,16.67
2023-04-12T22:48:20.259Z,22.37
2023-04-12T22:51:27.352Z,10.67
2023-04-12T22:54:30.587Z,7.60
2023-04-12T22:57:35.085Z,6.87
2023-04-12T23:00:39.382Z,5.70
2023-04-12T23:03:44.757Z,5.97
2023-04-12T23:06:55.148Z,5.50
2023-04-12T23:09:58.643Z,5.97
2023-04-12T23:13:01.756Z,5.30
2023-04-12T23:16:05.945Z,5.37
2023-04-12T23:19:10.569Z,4.90
2023-04-12T23:22:44.388Z,5.00
2023-04-12T23:25:59.583Z,6.27
2023-04-12T23:29:03.613Z,5.27
2023-04-12T23:32:07.251Z,5.80
2023-04-12T23:35:12.282Z,5.30
2023-04-12T23:38:23.299Z,5.47
2023-04-12T23:41:27.282Z,5.30
2023-04-12T23:44:32.302Z,5.47
2023-04-12T23:47:35.524Z,4.60
2023-04-12T23:50:40.676Z,4.27
2023-04-12T23:53:44.984Z,4.83
2023-04-12T23:56:48.120Z,3.80
2023-04-12T23:59:51.660Z,4.23
